Latest Weather Observations for Hay Point

IDQ60801

Issued at 10:02 am EST Monday 20 November 2017 (issued every 30 minutes, with the page automatically refreshed every 10 minutes)

About weather observations | Map of weather stations | Latest weather observations for QLD | Other Formats
Station Details ID: 033317 Name: HAY POINT Lat: -21.29 Lon: 149.30 Height: 7.0 m
Data from the previous 72 hours. | See also: Recent months for locations in Queensland
Date/Time
EST
Temp
°C
App
Temp
°C
Dew
Point
°C
Rel
Hum
%
Delta-T
°C
Wind Press
QNH
hPa
Press
MSL
hPa
Rain since
9am
mm
Dir  Spd
km/h
Gust
km/h
Spd
kts
Gust
kts
20/10:00am - - - - - E 30 33 16 18 - - -
20/09:30am - - - - - ESE 30 35 16 19 - - -
20/09:00am - - - - - ESE 22 30 12 16 - - -
20/08:30am - - - - - ESE 22 28 12 15 - - -
20/08:00am - - - - - ESE 26 30 14 16 - - -
20/07:30am - - - - - SE 24 30 13 16 - - -
20/07:00am - - - - - ESE 24 32 13 17 - - -
20/06:30am - - - - - E 24 30 13 16 - - -
20/06:00am - - - - - ESE 24 30 13 16 - - -
20/05:30am - - - - - ESE 24 28 13 15 - - -
20/05:00am - - - - - ESE 24 28 13 15 - - -
20/04:30am - - - - - E 26 32 14 17 - - -
20/04:00am - - - - - ESE 28 33 15 18 - - -
20/03:30am - - - - - ESE 28 35 15 19 - - -
20/03:00am - - - - - E 30 35 16 19 - - -
20/02:30am - - - - - ESE 30 35 16 19 - - -
20/02:00am - - - - - ESE 32 35 17 19 - - -
20/01:30am - - - - - E 33 41 18 22 - - -
20/01:00am - - - - - E 35 39 19 21 - - -
20/12:30am - - - - - E 37 41 20 22 - - -
20/12:00am - - - - - ESE 35 41 19 22 - - -
 
Date/Time
EST
Temp
°C
App
Temp
°C
Dew
Point
°C
Rel
Hum
%
Delta-T
°C
Wind Press
QNH
hPa
Press
MSL
hPa
Rain since
9am
mm
Dir  Spd
km/h
Gust
km/h
Spd
kts
Gust
kts
19/11:30pm - - - - - E 33 39 18 21 - - -
19/11:00pm - - - - - ESE 33 37 18 20 - - -
19/10:30pm - - - - - ESE 35 41 19 22 - - -
19/10:00pm - - - - - ESE 41 48 22 26 - - -
19/09:30pm - - - - - ESE 41 50 22 27 - - -
19/09:00pm - - - - - ESE 41 50 22 27 - - -
19/08:35pm - - - - - E 37 50 20 27 - - -
19/08:30pm - - - - - E 37 43 20 23 - - -
19/08:00pm - - - - - E 43 50 23 27 - - -
19/07:30pm - - - - - E 41 48 22 26 - - -
19/07:00pm - - - - - E 35 41 19 22 - - -
19/06:30pm - - - - - E 39 44 21 24 - - -
19/06:00pm - - - - - ENE 35 39 19 21 - - -
19/05:30pm - - - - - E 30 33 16 18 - - -
19/05:00pm - - - - - E 32 35 17 19 - - -
19/04:30pm - - - - - E 28 33 15 18 - - -
19/04:00pm - - - - - E 28 33 15 18 - - -
19/03:30pm - - - - - E 32 35 17 19 - - -
19/03:00pm - - - - - E 28 32 15 17 - - -
19/02:30pm - - - - - ESE 32 35 17 19 - - -
19/02:00pm - - - - - E 20 26 11 14 - - -
19/01:30pm - - - - - E 22 26 12 14 - - -
19/01:00pm - - - - - E 19 22 10 12 - - -
19/12:30pm - - - - - ESE 17 19 9 10 - - -
19/12:00pm - - - - - E 13 17 7 9 - - -
19/11:30am - - - - - ESE 13 15 7 8 - - -
19/11:00am - - - - - E 13 17 7 9 - - -
19/10:30am - - - - - E 17 20 9 11 - - -
19/10:00am - - - - - ENE 17 20 9 11 - - -
19/09:30am - - - - - NE 17 20 9 11 - - -
19/09:00am - - - - - NE 26 32 14 17 - - -
19/08:30am - - - - - E 15 19 8 10 - - -
19/08:00am - - - - - ENE 17 20 9 11 - - -
19/07:30am - - - - - ENE 20 26 11 14 - - -
19/07:00am - - - - - ENE 20 24 11 13 - - -
19/06:30am - - - - - ENE 20 26 11 14 - - -
19/06:00am - - - - - ENE 22 26 12 14 - - -
19/05:30am - - - - - ENE 20 26 11 14 - - -
19/05:00am - - - - - ENE 20 24 11 13 - - -
19/04:30am - - - - - ENE 19 22 10 12 - - -
19/04:00am - - - - - ENE 20 26 11 14 - - -
19/03:30am - - - - - ENE 22 26 12 14 - - -
19/03:00am - - - - - ENE 26 30 14 16 - - -
19/02:30am - - - - - ENE 26 32 14 17 - - -
19/02:00am - - - - - ENE 26 30 14 16 - - -
19/01:30am - - - - - ENE 30 32 16 17 - - -
19/01:00am - - - - - ENE 28 32 15 17 - - -
19/12:30am - - - - - ENE 28 32 15 17 - - -
19/12:00am - - - - - ENE 28 30 15 16 - - -
 
Date/Time
EST
Temp
°C
App
Temp
°C
Dew
Point
°C
Rel
Hum
%
Delta-T
°C
Wind Press
QNH
hPa
Press
MSL
hPa
Rain since
9am
mm
Dir  Spd
km/h
Gust
km/h
Spd
kts
Gust
kts
18/11:30pm - - - - - ENE 24 28 13 15 - - -
18/11:00pm - - - - - NE 22 28 12 15 - - -
18/10:30pm - - - - - ENE 26 37 14 20 - - -
18/10:00pm - - - - - ENE 24 28 13 15 - - -
18/09:30pm - - - - - ENE 24 28 13 15 - - -
18/09:00pm - - - - - ENE 20 26 11 14 - - -
18/08:30pm - - - - - NE 22 26 12 14 - - -
18/08:00pm - - - - - NE 24 28 13 15 - - -
18/07:30pm - - - - - ENE 30 33 16 18 - - -
18/07:00pm - - - - - ENE 26 30 14 16 - - -
18/06:30pm - - - - - ENE 26 32 14 17 - - -
18/06:00pm - - - - - ENE 24 28 13 15 - - -
18/05:30pm - - - - - ENE 22 26 12 14 - - -
18/05:00pm - - - - - ENE 19 22 10 12 - - -
18/04:30pm - - - - - E 15 17 8 9 - - -
18/04:00pm - - - - - E 17 20 9 11 - - -
18/03:30pm - - - - - ESE 17 20 9 11 - - -
18/03:00pm - - - - - E 20 30 11 16 - - -
18/02:30pm - - - - - ESE 15 19 8 10 - - -
18/02:00pm - - - - - ESE 17 22 9 12 - - -
18/01:30pm - - - - - E 30 33 16 18 - - -
18/01:00pm - - - - - ESE 30 37 16 20 - - -
18/12:30pm - - - - - SE 28 33 15 18 - - -
18/12:00pm - - - - - SE 22 30 12 16 - - -
18/11:30am - - - - - SE 24 32 13 17 - - -
18/11:00am - - - - - SE 26 32 14 17 - - -
18/10:30am - - - - - SE 37 44 20 24 - - -
18/10:12am - - - - - SE 24 44 13 24 - - -
18/10:00am - - - - - SE 19 24 10 13 - - -
18/09:30am - - - - - ESE 19 24 10 13 - - -
18/09:00am - - - - - E 20 24 11 13 - - -
18/08:30am - - - - - E 20 26 11 14 - - -
18/08:00am - - - - - ESE 24 28 13 15 - - -
18/07:30am - - - - - E 22 28 12 15 - - -
18/07:00am - - - - - E 19 24 10 13 - - -
18/06:30am - - - - - E 20 26 11 14 - - -
18/06:00am - - - - - E 22 26 12 14 - - -
18/05:30am - - - - - E 22 28 12 15 - - -
18/05:00am - - - - - E 22 26 12 14 - - -
18/04:30am - - - - - E 24 30 13 16 - - -
18/04:00am - - - - - E 30 33 16 18 - - -
18/03:30am - - - - - ENE 30 33 16 18 - - -
18/03:00am - - - - - ENE 28 33 15 18 - - -
18/02:30am - - - - - ENE 32 33 17 18 - - -
18/02:00am - - - - - E 30 33 16 18 - - -
18/01:30am - - - - - E 30 33 16 18 - - -
18/01:00am - - - - - ENE 30 35 16 19 - - -
18/12:30am - - - - - ENE 28 33 15 18 - - -
18/12:00am - - - - - NE 19 24 10 13 - - -
 
Date/Time
EST
Temp
°C
App
Temp
°C
Dew
Point
°C
Rel
Hum
%
Delta-T
°C
Wind Press
QNH
hPa
Press
MSL
hPa
Rain since
9am
mm
Dir  Spd
km/h
Gust
km/h
Spd
kts
Gust
kts
17/11:30pm - - - - - E 19 28 10 15 - - -
17/11:00pm - - - - - E 20 26 11 14 - - -
17/10:30pm - - - - - E 20 24 11 13 - - -
17/10:00pm - - - - - E 22 26 12 14 - - -
17/09:30pm - - - - - E 24 28 13 15 - - -
17/09:00pm - - - - - E 20 26 11 14 - - -
17/08:30pm - - - - - E 24 28 13 15 - - -
17/08:00pm - - - - - ENE 24 28 13 15 - - -
17/07:30pm - - - - - E 26 30 14 16 - - -
17/07:00pm - - - - - E 26 32 14 17 - - -
17/06:30pm - - - - - E 26 30 14 16 - - -
17/06:00pm - - - - - E 28 32 15 17 - - -
17/05:30pm - - - - - E 26 32 14 17 - - -
17/05:00pm - - - - - E 28 33 15 18 - - -
17/04:30pm - - - - - ESE 28 35 15 19 - - -
17/04:00pm - - - - - ESE 28 32 15 17 - - -
17/03:30pm - - - - - ESE 24 32 13 17 - - -
17/03:00pm - - - - - SE 20 28 11 15 - - -
17/02:30pm - - - - - ESE 24 30 13 16 - - -
17/02:00pm - - - - - ESE 24 30 13 16 - - -
17/01:30pm - - - - - ESE 20 26 11 14 - - -
17/01:00pm - - - - - ESE 24 30 13 16 - - -
17/12:30pm - - - - - ESE 26 30 14 16 - - -
17/12:00pm - - - - - E 28 32 15 17 - - -
17/11:30am - - - - - ESE 26 32 14 17 - - -
17/11:00am - - - - - ESE 26 30 14 16 - - -
17/10:30am - - - - - ESE 24 28 13 15 - - -

Other Formats:

Comma delimited format used in spreadsheet applications
http://www.bom.gov.au/fwo/IDQ60801/IDQ60801.99367.axf

JavaScript Object Notation format (JSON) in row-major order
http://www.bom.gov.au/fwo/IDQ60801/IDQ60801.99367.json